createdAt,value
2023-04-28T00:04:17.046Z,8.06
2023-04-28T00:09:18.985Z,8.03
2023-04-28T00:14:20.501Z,8.05
2023-04-28T00:19:22.286Z,8.04
2023-04-28T00:24:23.852Z,7.97
2023-04-28T00:29:25.485Z,7.96
2023-04-28T00:34:27.027Z,7.95
2023-04-28T00:39:28.551Z,7.93
2023-04-28T00:44:30.123Z,7.86
2023-04-28T00:49:31.930Z,7.78
2023-04-28T00:54:34.810Z,7.71
2023-04-28T00:59:36.777Z,7.65
2023-04-28T01:04:38.552Z,7.62
2023-04-28T01:09:40.217Z,7.63
2023-04-28T01:14:42.312Z,7.69
2023-04-28T01:19:43.822Z,7.74
2023-04-28T01:24:45.355Z,7.73
2023-04-28T01:29:46.902Z,7.75
2023-04-28T01:34:48.415Z,7.72
2023-04-28T01:39:49.945Z,7.77
2023-04-28T01:44:51.464Z,7.77
2023-04-28T01:49:52.939Z,7.78
2023-04-28T01:54:54.808Z,7.75
2023-04-28T01:59:56.354Z,7.73
2023-04-28T02:04:58.269Z,7.69
2023-04-28T02:09:59.776Z,7.66
2023-04-28T02:15:01.296Z,7.62
2023-04-28T02:20:02.859Z,7.64
2023-04-28T02:25:04.716Z,7.55
2023-04-28T02:30:06.871Z,7.55
2023-04-28T02:35:08.502Z,7.61
2023-04-28T02:40:10.331Z,7.57
2023-04-28T02:45:11.921Z,7.50
2023-04-28T02:50:13.386Z,7.48
2023-04-28T02:55:23.598Z,7.51
2023-04-28T03:00:25.125Z,7.50
2023-04-28T03:05:26.993Z,7.51
2023-04-28T03:10:28.541Z,7.47
2023-04-28T03:15:30.117Z,7.41
2023-04-28T03:20:31.658Z,7.38
2023-04-28T03:25:33.155Z,7.36
2023-04-28T03:30:34.604Z,7.33
2023-04-28T03:35:36.351Z,7.34
2023-04-28T03:40:38.996Z,7.38
2023-04-28T03:45:41.476Z,7.29
2023-04-28T03:50:45.445Z,7.27
2023-04-28T03:55:46.990Z,7.28
2023-04-28T04:00:48.535Z,7.29
2023-04-28T04:05:50.262Z,7.24
2023-04-28T04:10:52.678Z,7.24
2023-04-28T04:15:54.250Z,7.29
2023-04-28T04:20:57.130Z,7.32
2023-04-28T04:25:58.706Z,7.33
2023-04-28T04:31:00.261Z,7.27
2023-04-28T04:36:01.970Z,7.32
2023-04-28T04:41:03.499Z,7.34
2023-04-28T04:46:05.104Z,7.40
2023-04-28T04:51:07.210Z,7.41
2023-04-28T04:56:08.768Z,7.42
2023-04-28T05:01:10.352Z,7.32
2023-04-28T05:06:12.039Z,7.39
2023-04-28T05:11:13.570Z,7.36
2023-04-28T05:16:15.210Z,7.43
2023-04-28T05:21:16.965Z,7.42
2023-04-28T05:26:18.436Z,7.50
2023-04-28T05:31:20.005Z,7.50
2023-04-28T05:36:21.595Z,7.50
2023-04-28T05:41:23.124Z,7.59
2023-04-28T05:46:30.519Z,7.15
2023-04-28T05:51:33.664Z,6.70
2023-04-28T05:56:35.313Z,6.80
2023-04-28T06:01:38.658Z,6.68
2023-04-28T06:06:40.175Z,6.79
2023-04-28T06:11:41.745Z,6.84
2023-04-28T06:16:43.433Z,6.44
2023-04-28T06:21:46.097Z,6.72
2023-04-28T06:26:47.619Z,6.69
2023-04-28T06:31:49.190Z,6.58
2023-04-28T06:36:50.894Z,6.46
2023-04-28T06:41:52.489Z,6.69
2023-04-28T06:46:54.109Z,6.98
2023-04-28T06:51:55.643Z,7.08
2023-04-28T06:56:57.182Z,7.01
2023-04-28T07:01:58.816Z,6.89
2023-04-28T07:07:00.413Z,7.26
2023-04-28T07:12:02.081Z,7.19
2023-04-28T07:17:03.585Z,7.45
2023-04-28T07:22:05.107Z,7.46
2023-04-28T07:27:06.607Z,7.73
2023-04-28T07:32:11.257Z,7.89
2023-04-28T07:37:12.800Z,8.36
2023-04-28T07:42:14.363Z,8.35
2023-04-28T07:47:15.902Z,8.35
2023-04-28T07:52:17.388Z,8.09
2023-04-28T07:57:18.845Z,8.51
2023-04-28T08:02:20.987Z,8.82
2023-04-28T08:07:22.679Z,8.52
2023-04-28T08:12:24.276Z,8.17
2023-04-28T08:17:25.892Z,8.21
2023-04-28T08:22:27.485Z,8.33
2023-04-28T08:27:29.025Z,8.30
2023-04-28T08:32:30.616Z,8.32
2023-04-28T08:37:32.147Z,8.35
2023-04-28T08:42:34.643Z,8.15
2023-04-28T08:47:38.385Z,8.33
2023-04-28T08:52:41.876Z,8.35
2023-04-28T08:57:45.162Z,8.54
2023-04-28T09:02:47.050Z,8.34
2023-04-28T09:07:51.921Z,8.40
2023-04-28T09:12:55.821Z,8.41
2023-04-28T09:17:57.497Z,8.65
2023-04-28T09:23:13.965Z,8.62
2023-04-28T09:28:22.163Z,8.58
2023-04-28T09:33:23.759Z,8.40
2023-04-28T09:38:25.510Z,8.47
2023-04-28T09:43:36.199Z,8.70
2023-04-28T09:48:38.290Z,8.70
2023-04-28T09:53:40.005Z,8.75
2023-04-28T09:58:45.085Z,8.84
2023-04-28T10:03:47.985Z,8.79
2023-04-28T10:08:52.195Z,8.73
2023-04-28T10:13:54.065Z,8.93
2023-04-28T10:18:56.795Z,8.96
2023-04-28T10:24:33.440Z,9.20
2023-04-28T10:29:35.606Z,9.34
2023-04-28T10:34:37.148Z,9.52
2023-04-28T10:39:39.119Z,9.58
2023-04-28T10:44:43.924Z,9.81
2023-04-28T10:49:57.694Z,9.93
2023-04-28T10:55:27.042Z,10.03
2023-04-28T11:00:30.661Z,9.94
2023-04-28T11:05:34.631Z,9.98
2023-04-28T11:11:10.126Z,10.12
2023-04-28T11:16:14.696Z,10.28
2023-04-28T11:21:16.768Z,10.32
2023-04-28T11:26:20.076Z,10.21
2023-04-28T11:31:24.365Z,10.19
2023-04-28T11:36:38.201Z,10.40
2023-04-28T11:41:44.737Z,10.61
2023-04-28T11:46:57.473Z,10.70
2023-04-28T11:52:05.956Z,10.80
2023-04-28T11:57:07.937Z,10.91
2023-04-28T12:02:09.884Z,10.93
2023-04-28T12:07:17.265Z,10.94
2023-04-28T12:12:45.202Z,11.13
2023-04-28T12:17:51.922Z,11.23
2023-04-28T12:22:53.650Z,11.36
2023-04-28T12:28:02.504Z,11.57
2023-04-28T12:33:04.346Z,11.65
2023-04-28T12:38:06.012Z,11.70
2023-04-28T12:43:07.501Z,11.82
2023-04-28T12:48:09.085Z,11.81
2023-04-28T12:53:11.094Z,11.85
2023-04-28T12:58:12.697Z,11.89
2023-04-28T13:03:15.898Z,11.94
2023-04-28T13:08:17.487Z,11.87
2023-04-28T13:13:19.008Z,11.88
2023-04-28T13:18:20.541Z,11.83
2023-04-28T13:23:22.227Z,11.79
2023-04-28T13:28:24.178Z,11.88
2023-04-28T13:33:31.109Z,11.81
2023-04-28T13:38:32.972Z,11.74
2023-04-28T13:43:34.530Z,11.69
2023-04-28T13:48:36.269Z,11.92
2023-04-28T13:53:40.513Z,12.09
2023-04-28T13:58:42.101Z,12.18
2023-04-28T14:03:44.640Z,12.25
2023-04-28T14:08:46.413Z,12.27
2023-04-28T14:13:47.886Z,12.29
2023-04-28T14:18:49.761Z,12.23
2023-04-28T14:23:51.302Z,12.28
2023-04-28T14:28:53.889Z,12.31
2023-04-28T14:33:55.521Z,12.37
2023-04-28T14:38:57.699Z,12.30
2023-04-28T14:43:59.265Z,12.22
2023-04-28T14:49:02.523Z,12.24
2023-04-28T14:54:04.409Z,12.45
2023-04-28T14:59:06.104Z,12.60
2023-04-28T15:04:08.174Z,12.60
2023-04-28T15:09:10.607Z,12.67
2023-04-28T15:14:12.323Z,12.75
2023-04-28T15:19:14.609Z,12.81
2023-04-28T15:24:18.526Z,12.67
2023-04-28T15:29:20.712Z,12.67
2023-04-28T15:34:22.973Z,12.57
2023-04-28T15:39:25.648Z,12.57
2023-04-28T15:44:29.226Z,12.43
2023-04-28T15:49:31.952Z,12.40
2023-04-28T15:54:33.564Z,12.38
2023-04-28T15:59:35.793Z,12.30
2023-04-28T16:04:37.930Z,12.28
2023-04-28T16:09:39.666Z,12.28
2023-04-28T16:14:41.256Z,12.20
2023-04-28T16:19:43.567Z,12.16
2023-04-28T16:24:46.288Z,12.20
2023-04-28T16:29:47.903Z,12.21
2023-04-28T16:34:49.541Z,12.18
2023-04-28T16:39:51.638Z,12.17
2023-04-28T16:44:53.439Z,12.24
2023-04-28T16:49:55.073Z,12.26
2023-04-28T16:54:56.686Z,12.20
2023-04-28T16:59:58.179Z,12.19
2023-04-28T17:04:59.743Z,12.17
2023-04-28T17:10:01.376Z,12.20
2023-04-28T17:15:03.076Z,12.18
2023-04-28T17:20:05.038Z,12.14
2023-04-28T17:25:07.124Z,12.02
2023-04-28T17:30:11.741Z,11.98
2023-04-28T17:35:13.207Z,11.92
2023-04-28T17:40:14.667Z,11.97
2023-04-28T17:45:16.175Z,11.78
2023-04-28T17:50:17.718Z,11.74
2023-04-28T17:55:19.279Z,11.65
2023-04-28T18:00:20.985Z,11.63
2023-04-28T18:05:24.306Z,11.57
2023-04-28T18:10:28.109Z,11.44
2023-04-28T18:15:30.559Z,11.35
2023-04-28T18:20:32.020Z,11.34
2023-04-28T18:25:33.614Z,11.17
2023-04-28T18:30:38.005Z,11.22
2023-04-28T18:35:39.951Z,11.08
2023-04-28T18:40:41.494Z,11.00
2023-04-28T18:45:43.874Z,10.92
2023-04-28T18:50:48.468Z,10.84
2023-04-28T18:55:50.115Z,10.79
2023-04-28T19:00:52.508Z,10.68
2023-04-28T19:05:54.182Z,10.58
2023-04-28T19:11:00.297Z,10.54
2023-04-28T19:16:02.092Z,10.48
2023-04-28T19:21:04.766Z,10.44
2023-04-28T19:26:07.695Z,10.27
2023-04-28T19:31:09.383Z,10.15
2023-04-28T19:36:10.900Z,10.22
2023-04-28T19:41:12.435Z,10.20
2023-04-28T19:46:15.093Z,10.04
2023-04-28T19:51:16.883Z,9.98
2023-04-28T19:56:18.456Z,9.98
2023-04-28T20:01:20.042Z,10.01
2023-04-28T20:06:22.247Z,9.97
2023-04-28T20:11:24.717Z,9.88
2023-04-28T20:16:27.074Z,9.93
2023-04-28T20:21:28.622Z,9.87
2023-04-28T20:26:31.204Z,9.91
2023-04-28T20:31:33.099Z,9.95
2023-04-28T20:36:34.697Z,10.03
2023-04-28T20:41:36.788Z,9.98
2023-04-28T20:46:38.381Z,9.97
2023-04-28T20:51:45.300Z,9.89
2023-04-28T20:56:46.796Z,9.85
2023-04-28T21:01:48.713Z,9.84
2023-04-28T21:06:51.681Z,9.81
2023-04-28T21:11:53.138Z,9.74
2023-04-28T21:16:54.770Z,9.60
2023-04-28T21:21:57.068Z,9.62
2023-04-28T21:26:59.560Z,9.62
2023-04-28T21:32:01.171Z,9.61
2023-04-28T21:37:02.734Z,9.56
2023-04-28T21:42:04.760Z,9.61
2023-04-28T21:47:09.487Z,9.56
2023-04-28T21:52:10.972Z,9.55
2023-04-28T21:57:12.509Z,9.58
2023-04-28T22:02:14.175Z,9.50
2023-04-28T22:07:16.231Z,9.53
2023-04-28T22:12:18.696Z,9.44
2023-04-28T22:17:20.283Z,9.47
2023-04-28T22:22:21.940Z,9.50
2023-04-28T22:27:23.488Z,9.48
2023-04-28T22:32:26.537Z,9.47
2023-04-28T22:37:28.184Z,9.46
2023-04-28T22:42:29.727Z,9.45
2023-04-28T22:47:31.511Z,9.50
2023-04-28T22:52:34.168Z,9.55
2023-04-28T22:57:36.529Z,9.49
2023-04-28T23:02:38.187Z,9.43
2023-04-28T23:07:39.824Z,9.41
2023-04-28T23:12:41.365Z,9.41
2023-04-28T23:17:43.309Z,9.38
2023-04-28T23:22:44.883Z,9.27
2023-04-28T23:27:46.553Z,9.26
2023-04-28T23:32:48.076Z,9.33
2023-04-28T23:37:49.550Z,9.31
2023-04-28T23:42:51.059Z,9.35
2023-04-28T23:47:53.376Z,9.42
2023-04-28T23:52:54.974Z,9.37
2023-04-28T23:57:56.490Z,9.42
